sensor_id;sensor_type;location;lat;lon;timestamp;temperature;humidity
54192;DHT22;40101;53.002;6.488;2023-02-28T00:00:13;3.80;99.90
54192;DHT22;40101;53.002;6.488;2023-02-28T00:02:43;3.80;99.90
54192;DHT22;40101;53.002;6.488;2023-02-28T00:05:11;3.80;99.90
54192;DHT22;40101;53.002;6.488;2023-02-28T00:07:37;3.90;99.90
54192;DHT22;40101;53.002;6.488;2023-02-28T00:10:04;3.70;99.90
54192;DHT22;40101;53.002;6.488;2023-02-28T00:12:32;3.80;99.90
54192;DHT22;40101;53.002;6.488;2023-02-28T00:14:57;3.80;99.90
54192;DHT22;40101;53.002;6.488;2023-02-28T00:17:23;3.90;99.90
54192;DHT22;40101;53.002;6.488;2023-02-28T00:19:49;3.90;99.90
54192;DHT22;40101;53.002;6.488;2023-02-28T00:22:20;3.80;99.90
54192;DHT22;40101;53.002;6.488;2023-02-28T00:24:46;3.80;99.90
54192;DHT22;40101;53.002;6.488;2023-02-28T00:27:13;3.70;99.90
54192;DHT22;40101;53.002;6.488;2023-02-28T00:29:38;3.90;99.90
54192;DHT22;40101;53.002;6.488;2023-02-28T00:32:05;3.80;99.90
54192;DHT22;40101;53.002;6.488;2023-02-28T00:34:31;3.80;99.90
54192;DHT22;40101;53.002;6.488;2023-02-28T00:36:57;3.70;99.90
54192;DHT22;40101;53.002;6.488;2023-02-28T00:39:23;3.80;99.90
54192;DHT22;40101;53.002;6.488;2023-02-28T00:41:49;3.70;99.90
54192;DHT22;40101;53.002;6.488;2023-02-28T00:44:15;3.70;99.90
54192;DHT22;40101;53.002;6.488;2023-02-28T00:46:40;3.70;99.90
54192;DHT22;40101;53.002;6.488;2023-02-28T00:49:06;3.80;99.90
54192;DHT22;40101;53.002;6.488;2023-02-28T00:51:32;3.70;99.90
54192;DHT22;40101;53.002;6.488;2023-02-28T00:53:57;3.80;99.90
54192;DHT22;40101;53.002;6.488;2023-02-28T00:56:23;3.70;99.90
54192;DHT22;40101;53.002;6.488;2023-02-28T00:58:48;3.70;99.90
54192;DHT22;40101;53.002;6.488;2023-02-28T01:01:14;3.70;99.90
54192;DHT22;40101;53.002;6.488;2023-02-28T01:03:42;3.70;99.90
54192;DHT22;40101;53.002;6.488;2023-02-28T01:06:07;3.70;99.90
54192;DHT22;40101;53.002;6.488;2023-02-28T01:08:33;3.80;99.90
54192;DHT22;40101;53.002;6.488;2023-02-28T01:11:09;3.70;99.90
54192;DHT22;40101;53.002;6.488;2023-02-28T01:13:37;3.90;99.90
54192;DHT22;40101;53.002;6.488;2023-02-28T01:16:03;3.60;99.90
54192;DHT22;40101;53.002;6.488;2023-02-28T01:18:28;3.60;99.90
54192;DHT22;40101;53.002;6.488;2023-02-28T01:20:54;3.60;99.90
54192;DHT22;40101;53.002;6.488;2023-02-28T01:23:21;3.60;99.90
54192;DHT22;40101;53.002;6.488;2023-02-28T01:25:49;3.70;99.90
54192;DHT22;40101;53.002;6.488;2023-02-28T01:28:15;3.60;99.90
54192;DHT22;40101;53.002;6.488;2023-02-28T01:30:41;3.70;99.90
54192;DHT22;40101;53.002;6.488;2023-02-28T01:33:07;3.70;99.90
54192;DHT22;40101;53.002;6.488;2023-02-28T01:35:36;3.70;99.90
54192;DHT22;40101;53.002;6.488;2023-02-28T01:38:02;3.70;99.90
54192;DHT22;40101;53.002;6.488;2023-02-28T01:40:28;3.70;99.90
54192;DHT22;40101;53.002;6.488;2023-02-28T01:42:53;3.70;99.90
54192;DHT22;40101;53.002;6.488;2023-02-28T01:45:31;3.70;99.90
54192;DHT22;40101;53.002;6.488;2023-02-28T01:48:06;3.70;99.90
54192;DHT22;40101;53.002;6.488;2023-02-28T01:50:37;3.70;99.90
54192;DHT22;40101;53.002;6.488;2023-02-28T01:53:07;3.80;99.90
54192;DHT22;40101;53.002;6.488;2023-02-28T01:55:34;3.70;99.90
54192;DHT22;40101;53.002;6.488;2023-02-28T01:58:04;3.70;99.90
54192;DHT22;40101;53.002;6.488;2023-02-28T02:00:31;3.70;99.90
54192;DHT22;40101;53.002;6.488;2023-02-28T02:02:59;3.70;99.90
54192;DHT22;40101;53.002;6.488;2023-02-28T02:05:29;3.70;99.90
54192;DHT22;40101;53.002;6.488;2023-02-28T02:07:57;3.70;99.90
54192;DHT22;40101;53.002;6.488;2023-02-28T02:10:36;3.70;99.90
54192;DHT22;40101;53.002;6.488;2023-02-28T02:16:08;3.70;99.90
54192;DHT22;40101;53.002;6.488;2023-02-28T02:21:45;3.70;99.90
54192;DHT22;40101;53.002;6.488;2023-02-28T02:30:17;3.70;99.90
54192;DHT22;40101;53.002;6.488;2023-02-28T02:35:26;3.70;99.90
54192;DHT22;40101;53.002;6.488;2023-02-28T02:40:35;3.70;99.90
54192;DHT22;40101;53.002;6.488;2023-02-28T02:43:16;3.70;99.90
54192;DHT22;40101;53.002;6.488;2023-02-28T02:45:50;4.00;99.90
54192;DHT22;40101;53.002;6.488;2023-02-28T02:48:19;3.70;99.90
54192;DHT22;40101;53.002;6.488;2023-02-28T02:50:49;3.70;99.90
54192;DHT22;40101;53.002;6.488;2023-02-28T02:53:18;3.80;99.90
54192;DHT22;40101;53.002;6.488;2023-02-28T02:55:47;3.70;99.90
54192;DHT22;40101;53.002;6.488;2023-02-28T02:58:22;3.70;99.90
54192;DHT22;40101;53.002;6.488;2023-02-28T03:00:53;3.70;99.90
54192;DHT22;40101;53.002;6.488;2023-02-28T03:03:21;3.80;99.90
54192;DHT22;40101;53.002;6.488;2023-02-28T03:05:56;3.60;99.90
54192;DHT22;40101;53.002;6.488;2023-02-28T03:08:22;3.60;99.90
54192;DHT22;40101;53.002;6.488;2023-02-28T03:11:11;3.60;99.90
54192;DHT22;40101;53.002;6.488;2023-02-28T03:16:34;3.60;99.90
54192;DHT22;40101;53.002;6.488;2023-02-28T03:19:24;3.50;99.90
54192;DHT22;40101;53.002;6.488;2023-02-28T03:22:08;3.50;99.90
54192;DHT22;40101;53.002;6.488;2023-02-28T03:30:24;3.40;99.90
54192;DHT22;40101;53.002;6.488;2023-02-28T03:32:58;3.40;99.90
54192;DHT22;40101;53.002;6.488;2023-02-28T03:35:32;3.30;99.90
54192;DHT22;40101;53.002;6.488;2023-02-28T03:38:06;3.40;99.90
54192;DHT22;40101;53.002;6.488;2023-02-28T03:40:36;3.20;99.90
54192;DHT22;40101;53.002;6.488;2023-02-28T03:43:09;3.30;99.90
54192;DHT22;40101;53.002;6.488;2023-02-28T03:45:38;3.20;99.90
54192;DHT22;40101;53.002;6.488;2023-02-28T03:48:19;3.20;99.90
54192;DHT22;40101;53.002;6.488;2023-02-28T03:50:49;3.20;99.90
54192;DHT22;40101;53.002;6.488;2023-02-28T03:53:34;3.00;99.90
54192;DHT22;40101;53.002;6.488;2023-02-28T03:56:14;3.10;99.90
54192;DHT22;40101;53.002;6.488;2023-02-28T04:01:42;3.10;99.90
54192;DHT22;40101;53.002;6.488;2023-02-28T04:04:12;3.20;99.90
54192;DHT22;40101;53.002;6.488;2023-02-28T04:06:39;3.10;99.90
54192;DHT22;40101;53.002;6.488;2023-02-28T04:09:07;3.20;99.90
54192;DHT22;40101;53.002;6.488;2023-02-28T04:14:04;3.00;99.90
54192;DHT22;40101;53.002;6.488;2023-02-28T04:16:34;3.10;99.90
54192;DHT22;40101;53.002;6.488;2023-02-28T04:19:00;3.00;99.90
54192;DHT22;40101;53.002;6.488;2023-02-28T04:21:35;3.00;99.90
54192;DHT22;40101;53.002;6.488;2023-02-28T04:24:01;3.00;99.90
54192;DHT22;40101;53.002;6.488;2023-02-28T04:26:34;3.00;99.90
54192;DHT22;40101;53.002;6.488;2023-02-28T04:29:02;3.10;99.90
54192;DHT22;40101;53.002;6.488;2023-02-28T04:31:28;3.20;99.90
54192;DHT22;40101;53.002;6.488;2023-02-28T04:33:54;3.10;99.90
54192;DHT22;40101;53.002;6.488;2023-02-28T04:36:19;3.00;99.90
54192;DHT22;40101;53.002;6.488;2023-02-28T04:38:46;3.00;99.90
54192;DHT22;40101;53.002;6.488;2023-02-28T04:41:12;3.00;99.90
54192;DHT22;40101;53.002;6.488;2023-02-28T04:43:38;3.00;99.90
54192;DHT22;40101;53.002;6.488;2023-02-28T04:46:05;3.00;99.90
54192;DHT22;40101;53.002;6.488;2023-02-28T04:48:34;3.10;99.90
54192;DHT22;40101;53.002;6.488;2023-02-28T04:51:05;3.30;99.90
54192;DHT22;40101;53.002;6.488;2023-02-28T04:53:32;3.00;99.90
54192;DHT22;40101;53.002;6.488;2023-02-28T04:55:58;3.00;99.90
54192;DHT22;40101;53.002;6.488;2023-02-28T04:58:24;3.00;99.90
54192;DHT22;40101;53.002;6.488;2023-02-28T05:00:51;3.00;99.90
54192;DHT22;40101;53.002;6.488;2023-02-28T05:03:17;3.00;99.90
54192;DHT22;40101;53.002;6.488;2023-02-28T05:05:43;3.00;99.90
54192;DHT22;40101;53.002;6.488;2023-02-28T05:08:09;2.90;99.90
54192;DHT22;40101;53.002;6.488;2023-02-28T05:10:35;2.90;99.90
54192;DHT22;40101;53.002;6.488;2023-02-28T05:13:01;2.80;99.90
54192;DHT22;40101;53.002;6.488;2023-02-28T05:15:27;2.80;99.90
54192;DHT22;40101;53.002;6.488;2023-02-28T05:17:53;2.80;99.90
54192;DHT22;40101;53.002;6.488;2023-02-28T05:20:18;2.80;99.90
54192;DHT22;40101;53.002;6.488;2023-02-28T05:22:44;2.80;99.90
54192;DHT22;40101;53.002;6.488;2023-02-28T05:25:16;2.70;99.90
54192;DHT22;40101;53.002;6.488;2023-02-28T05:27:43;2.90;99.90
54192;DHT22;40101;53.002;6.488;2023-02-28T05:30:10;2.70;99.90
54192;DHT22;40101;53.002;6.488;2023-02-28T05:32:40;2.70;99.90
54192;DHT22;40101;53.002;6.488;2023-02-28T05:35:10;2.70;99.90
54192;DHT22;40101;53.002;6.488;2023-02-28T05:37:37;2.70;99.90
54192;DHT22;40101;53.002;6.488;2023-02-28T05:40:04;2.80;99.90
54192;DHT22;40101;53.002;6.488;2023-02-28T05:42:36;2.60;99.90
54192;DHT22;40101;53.002;6.488;2023-02-28T05:45:03;2.60;99.90
54192;DHT22;40101;53.002;6.488;2023-02-28T05:47:30;2.60;99.90
54192;DHT22;40101;53.002;6.488;2023-02-28T05:49:55;2.70;99.90
54192;DHT22;40101;53.002;6.488;2023-02-28T05:52:21;2.70;99.90
54192;DHT22;40101;53.002;6.488;2023-02-28T05:54:47;2.70;99.90
54192;DHT22;40101;53.002;6.488;2023-02-28T05:57:13;2.50;99.90
54192;DHT22;40101;53.002;6.488;2023-02-28T05:59:39;2.50;99.90
54192;DHT22;40101;53.002;6.488;2023-02-28T06:02:08;2.50;99.90
54192;DHT22;40101;53.002;6.488;2023-02-28T06:04:36;2.50;99.90
54192;DHT22;40101;53.002;6.488;2023-02-28T06:07:02;2.50;99.90
54192;DHT22;40101;53.002;6.488;2023-02-28T06:09:27;2.50;99.90
54192;DHT22;40101;53.002;6.488;2023-02-28T06:11:53;2.50;99.90
54192;DHT22;40101;53.002;6.488;2023-02-28T06:14:20;2.60;99.90
54192;DHT22;40101;53.002;6.488;2023-02-28T06:16:46;2.50;99.90
54192;DHT22;40101;53.002;6.488;2023-02-28T06:19:12;2.40;99.90
54192;DHT22;40101;53.002;6.488;2023-02-28T06:21:38;2.40;99.90
54192;DHT22;40101;53.002;6.488;2023-02-28T06:24:04;2.40;99.90
54192;DHT22;40101;53.002;6.488;2023-02-28T06:26:30;2.40;99.90
54192;DHT22;40101;53.002;6.488;2023-02-28T06:28:56;2.40;99.90
54192;DHT22;40101;53.002;6.488;2023-02-28T06:31:22;2.30;99.90
54192;DHT22;40101;53.002;6.488;2023-02-28T06:33:48;2.30;99.90
54192;DHT22;40101;53.002;6.488;2023-02-28T06:36:15;2.30;99.90
54192;DHT22;40101;53.002;6.488;2023-02-28T06:38:42;2.30;99.90
54192;DHT22;40101;53.002;6.488;2023-02-28T06:41:08;2.30;99.90
54192;DHT22;40101;53.002;6.488;2023-02-28T06:43:38;2.30;99.90
54192;DHT22;40101;53.002;6.488;2023-02-28T06:46:05;2.40;99.90
54192;DHT22;40101;53.002;6.488;2023-02-28T06:48:31;2.40;99.90
54192;DHT22;40101;53.002;6.488;2023-02-28T06:51:16;2.40;99.90
54192;DHT22;40101;53.002;6.488;2023-02-28T06:53:42;2.50;99.90
54192;DHT22;40101;53.002;6.488;2023-02-28T06:56:10;2.60;99.90
54192;DHT22;40101;53.002;6.488;2023-02-28T06:58:37;2.60;99.90
54192;DHT22;40101;53.002;6.488;2023-02-28T07:01:03;2.50;99.90
54192;DHT22;40101;53.002;6.488;2023-02-28T07:03:30;2.60;99.90
54192;DHT22;40101;53.002;6.488;2023-02-28T07:05:55;2.60;99.90
54192;DHT22;40101;53.002;6.488;2023-02-28T07:08:23;2.60;99.90
54192;DHT22;40101;53.002;6.488;2023-02-28T07:10:52;2.60;99.90
54192;DHT22;40101;53.002;6.488;2023-02-28T07:13:17;2.60;99.90
54192;DHT22;40101;53.002;6.488;2023-02-28T07:15:43;2.60;99.90
54192;DHT22;40101;53.002;6.488;2023-02-28T07:18:08;2.60;99.90
54192;DHT22;40101;53.002;6.488;2023-02-28T07:20:35;2.60;99.90
54192;DHT22;40101;53.002;6.488;2023-02-28T07:23:00;2.70;99.90
54192;DHT22;40101;53.002;6.488;2023-02-28T07:25:27;2.70;99.90
54192;DHT22;40101;53.002;6.488;2023-02-28T07:27:54;2.70;99.90
54192;DHT22;40101;53.002;6.488;2023-02-28T07:30:20;2.70;99.90
54192;DHT22;40101;53.002;6.488;2023-02-28T07:32:46;2.70;99.90
54192;DHT22;40101;53.002;6.488;2023-02-28T07:35:12;2.70;99.90
54192;DHT22;40101;53.002;6.488;2023-02-28T07:37:38;2.70;99.90
54192;DHT22;40101;53.002;6.488;2023-02-28T07:40:09;2.70;99.90
54192;DHT22;40101;53.002;6.488;2023-02-28T07:42:36;2.70;99.90
54192;DHT22;40101;53.002;6.488;2023-02-28T07:45:02;2.70;99.90
54192;DHT22;40101;53.002;6.488;2023-02-28T07:47:29;2.70;99.90
54192;DHT22;40101;53.002;6.488;2023-02-28T07:49:55;2.70;99.90
54192;DHT22;40101;53.002;6.488;2023-02-28T07:52:21;2.70;99.90
54192;DHT22;40101;53.002;6.488;2023-02-28T07:54:49;2.70;99.90
54192;DHT22;40101;53.002;6.488;2023-02-28T07:57:14;2.70;99.90
54192;DHT22;40101;53.002;6.488;2023-02-28T07:59:40;2.80;99.90
54192;DHT22;40101;53.002;6.488;2023-02-28T08:02:06;2.80;99.90
54192;DHT22;40101;53.002;6.488;2023-02-28T08:04:32;2.80;99.90
54192;DHT22;40101;53.002;6.488;2023-02-28T08:06:58;2.90;99.90
54192;DHT22;40101;53.002;6.488;2023-02-28T08:09:24;2.90;99.90
54192;DHT22;40101;53.002;6.488;2023-02-28T08:11:50;2.90;99.90
54192;DHT22;40101;53.002;6.488;2023-02-28T08:14:15;2.90;99.90
54192;DHT22;40101;53.002;6.488;2023-02-28T08:16:41;3.00;99.90
54192;DHT22;40101;53.002;6.488;2023-02-28T08:19:08;3.00;99.90
54192;DHT22;40101;53.002;6.488;2023-02-28T08:21:34;3.10;99.90
54192;DHT22;40101;53.002;6.488;2023-02-28T08:24:00;3.20;99.90
54192;DHT22;40101;53.002;6.488;2023-02-28T08:26:26;3.10;99.90
54192;DHT22;40101;53.002;6.488;2023-02-28T08:28:51;3.20;99.90
54192;DHT22;40101;53.002;6.488;2023-02-28T08:31:17;3.20;99.90
54192;DHT22;40101;53.002;6.488;2023-02-28T08:33:44;3.30;99.90
54192;DHT22;40101;53.002;6.488;2023-02-28T08:36:15;3.30;99.90
54192;DHT22;40101;53.002;6.488;2023-02-28T08:38:40;3.40;99.90
54192;DHT22;40101;53.002;6.488;2023-02-28T08:41:09;3.40;99.90
54192;DHT22;40101;53.002;6.488;2023-02-28T08:43:35;3.40;99.90
54192;DHT22;40101;53.002;6.488;2023-02-28T08:46:02;3.40;99.90
54192;DHT22;40101;53.002;6.488;2023-02-28T08:48:30;3.50;99.90
54192;DHT22;40101;53.002;6.488;2023-02-28T08:51:02;3.60;99.90
54192;DHT22;40101;53.002;6.488;2023-02-28T08:53:28;3.70;99.90
54192;DHT22;40101;53.002;6.488;2023-02-28T08:56:02;3.80;99.90
54192;DHT22;40101;53.002;6.488;2023-02-28T08:58:28;3.90;99.90
54192;DHT22;40101;53.002;6.488;2023-02-28T09:00:54;3.90;99.90
54192;DHT22;40101;53.002;6.488;2023-02-28T09:03:20;4.00;99.90
54192;DHT22;40101;53.002;6.488;2023-02-28T09:05:57;4.20;99.90
54192;DHT22;40101;53.002;6.488;2023-02-28T09:08:24;4.30;99.90
54192;DHT22;40101;53.002;6.488;2023-02-28T09:10:51;4.60;99.90
54192;DHT22;40101;53.002;6.488;2023-02-28T09:13:17;5.00;99.90
54192;DHT22;40101;53.002;6.488;2023-02-28T09:15:43;6.10;99.90
54192;DHT22;40101;53.002;6.488;2023-02-28T09:18:09;7.70;99.90
54192;DHT22;40101;53.002;6.488;2023-02-28T09:20:40;9.20;99.90
54192;DHT22;40101;53.002;6.488;2023-02-28T09:23:07;10.50;99.90
54192;DHT22;40101;53.002;6.488;2023-02-28T09:25:33;11.70;99.90
54192;DHT22;40101;53.002;6.488;2023-02-28T09:27:59;12.40;99.90
54192;DHT22;40101;53.002;6.488;2023-02-28T09:30:24;12.90;99.90
54192;DHT22;40101;53.002;6.488;2023-02-28T09:32:50;13.20;99.90
54192;DHT22;40101;53.002;6.488;2023-02-28T09:35:19;13.60;99.90
54192;DHT22;40101;53.002;6.488;2023-02-28T09:37:47;13.80;99.90
54192;DHT22;40101;53.002;6.488;2023-02-28T09:40:13;13.60;99.90
54192;DHT22;40101;53.002;6.488;2023-02-28T09:42:40;13.60;99.90
54192;DHT22;40101;53.002;6.488;2023-02-28T09:45:22;14.00;99.90
54192;DHT22;40101;53.002;6.488;2023-02-28T09:47:50;14.30;99.90
54192;DHT22;40101;53.002;6.488;2023-02-28T09:50:38;14.70;99.90
54192;DHT22;40101;53.002;6.488;2023-02-28T09:53:35;15.00;99.90
54192;DHT22;40101;53.002;6.488;2023-02-28T09:58:59;15.30;99.90
54192;DHT22;40101;53.002;6.488;2023-02-28T10:01:31;15.40;99.90
54192;DHT22;40101;53.002;6.488;2023-02-28T10:04:08;15.40;99.90
54192;DHT22;40101;53.002;6.488;2023-02-28T10:06:54;14.90;99.90
54192;DHT22;40101;53.002;6.488;2023-02-28T10:09:26;14.60;99.90
54192;DHT22;40101;53.002;6.488;2023-02-28T10:11:57;14.70;99.90
54192;DHT22;40101;53.002;6.488;2023-02-28T10:14:28;15.20;99.90
54192;DHT22;40101;53.002;6.488;2023-02-28T10:19:38;15.00;96.90
54192;DHT22;40101;53.002;6.488;2023-02-28T10:22:24;14.60;95.10
54192;DHT22;40101;53.002;6.488;2023-02-28T10:24:54;14.60;96.00
54192;DHT22;40101;53.002;6.488;2023-02-28T10:27:28;14.40;95.50
54192;DHT22;40101;53.002;6.488;2023-02-28T10:29:56;13.60;96.30
54192;DHT22;40101;53.002;6.488;2023-02-28T10:32:30;13.10;97.50
54192;DHT22;40101;53.002;6.488;2023-02-28T10:37:37;12.70;95.40
54192;DHT22;40101;53.002;6.488;2023-02-28T10:40:05;13.00;96.20
54192;DHT22;40101;53.002;6.488;2023-02-28T10:42:31;12.90;95.70
54192;DHT22;40101;53.002;6.488;2023-02-28T10:47:42;10.40;99.90
54192;DHT22;40101;53.002;6.488;2023-02-28T10:53:11;8.90;99.90
54192;DHT22;40101;53.002;6.488;2023-02-28T10:55:39;8.70;99.90
54192;DHT22;40101;53.002;6.488;2023-02-28T10:58:21;8.50;99.90
54192;DHT22;40101;53.002;6.488;2023-02-28T11:00:47;8.50;99.90
54192;DHT22;40101;53.002;6.488;2023-02-28T11:03:32;8.40;99.90
54192;DHT22;40101;53.002;6.488;2023-02-28T11:06:05;8.40;99.90
54192;DHT22;40101;53.002;6.488;2023-02-28T11:08:31;8.50;99.90
54192;DHT22;40101;53.002;6.488;2023-02-28T11:11:00;8.60;99.90
54192;DHT22;40101;53.002;6.488;2023-02-28T11:13:32;8.50;99.90
54192;DHT22;40101;53.002;6.488;2023-02-28T11:16:02;8.50;99.90
54192;DHT22;40101;53.002;6.488;2023-02-28T11:18:49;8.50;99.90
54192;DHT22;40101;53.002;6.488;2023-02-28T11:21:27;8.60;99.90
54192;DHT22;40101;53.002;6.488;2023-02-28T11:26:49;8.60;99.90
54192;DHT22;40101;53.002;6.488;2023-02-28T11:29:22;8.30;99.90
54192;DHT22;40101;53.002;6.488;2023-02-28T11:32:09;8.20;99.90
54192;DHT22;40101;53.002;6.488;2023-02-28T11:34:37;8.40;99.90
54192;DHT22;40101;53.002;6.488;2023-02-28T11:37:05;8.50;99.90
54192;DHT22;40101;53.002;6.488;2023-02-28T11:39:34;8.60;99.90
54192;DHT22;40101;53.002;6.488;2023-02-28T11:42:23;8.80;99.90
54192;DHT22;40101;53.002;6.488;2023-02-28T11:47:40;9.00;99.90
54192;DHT22;40101;53.002;6.488;2023-02-28T11:50:34;8.80;99.90
54192;DHT22;40101;53.002;6.488;2023-02-28T11:53:21;8.70;99.90
54192;DHT22;40101;53.002;6.488;2023-02-28T11:56:15;8.60;99.90
54192;DHT22;40101;53.002;6.488;2023-02-28T12:04:25;7.90;99.90
54192;DHT22;40101;53.002;6.488;2023-02-28T12:07:03;7.70;99.90
54192;DHT22;40101;53.002;6.488;2023-02-28T12:10:15;7.60;99.90
54192;DHT22;40101;53.002;6.488;2023-02-28T12:13:07;7.40;99.90
54192;DHT22;40101;53.002;6.488;2023-02-28T12:21:34;7.00;99.90
54192;DHT22;40101;53.002;6.488;2023-02-28T12:24:13;7.00;99.90
54192;DHT22;40101;53.002;6.488;2023-02-28T12:26:44;7.10;99.90
54192;DHT22;40101;53.002;6.488;2023-02-28T12:29:43;7.30;99.90
54192;DHT22;40101;53.002;6.488;2023-02-28T12:32:19;7.40;99.90
54192;DHT22;40101;53.002;6.488;2023-02-28T12:34:57;7.30;99.90
54192;DHT22;40101;53.002;6.488;2023-02-28T12:38:05;7.30;99.90
54192;DHT22;40101;53.002;6.488;2023-02-28T12:40:25;7.20;99.90
54192;DHT22;40101;53.002;6.488;2023-02-28T12:45:26;7.80;99.90
54192;DHT22;40101;53.002;6.488;2023-02-28T12:47:57;8.00;99.90
54192;DHT22;40101;53.002;6.488;2023-02-28T12:50:26;8.30;99.90
54192;DHT22;40101;53.002;6.488;2023-02-28T12:56:08;8.60;99.90
54192;DHT22;40101;53.002;6.488;2023-02-28T13:04:40;8.70;99.90
54192;DHT22;40101;53.002;6.488;2023-02-28T13:09:58;8.40;99.90
54192;DHT22;40101;53.002;6.488;2023-02-28T13:12:24;8.00;99.90
54192;DHT22;40101;53.002;6.488;2023-02-28T13:14:50;7.80;99.90
54192;DHT22;40101;53.002;6.488;2023-02-28T13:17:25;7.60;99.90
54192;DHT22;40101;53.002;6.488;2023-02-28T13:22:39;7.10;99.90
54192;DHT22;40101;53.002;6.488;2023-02-28T13:27:55;6.80;99.90
54192;DHT22;40101;53.002;6.488;2023-02-28T13:38:53;7.20;99.90
54192;DHT22;40101;53.002;6.488;2023-02-28T13:46:33;7.70;99.90
54192;DHT22;40101;53.002;6.488;2023-02-28T13:51:52;7.80;99.90
54192;DHT22;40101;53.002;6.488;2023-02-28T14:05:20;7.90;99.90
54192;DHT22;40101;53.002;6.488;2023-02-28T14:07:53;7.90;99.90
54192;DHT22;40101;53.002;6.488;2023-02-28T14:10:31;8.00;99.90
54192;DHT22;40101;53.002;6.488;2023-02-28T14:13:11;8.00;99.90
54192;DHT22;40101;53.002;6.488;2023-02-28T14:18:32;8.00;99.90
54192;DHT22;40101;53.002;6.488;2023-02-28T14:24:00;7.90;99.90
54192;DHT22;40101;53.002;6.488;2023-02-28T14:30:09;7.70;99.90
54192;DHT22;40101;53.002;6.488;2023-02-28T14:35:47;7.60;99.90
54192;DHT22;40101;53.002;6.488;2023-02-28T14:38:29;7.50;99.90
54192;DHT22;40101;53.002;6.488;2023-02-28T14:40:58;7.50;99.90
54192;DHT22;40101;53.002;6.488;2023-02-28T14:43:27;7.50;99.90
54192;DHT22;40101;53.002;6.488;2023-02-28T14:46:02;7.50;99.90
54192;DHT22;40101;53.002;6.488;2023-02-28T14:48:29;7.50;99.90
54192;DHT22;40101;53.002;6.488;2023-02-28T14:50:57;7.50;99.90
54192;DHT22;40101;53.002;6.488;2023-02-28T14:53:27;7.60;99.90
54192;DHT22;40101;53.002;6.488;2023-02-28T14:55:53;7.60;99.90
54192;DHT22;40101;53.002;6.488;2023-02-28T14:58:24;7.60;99.90
54192;DHT22;40101;53.002;6.488;2023-02-28T15:00:52;7.60;99.90
54192;DHT22;40101;53.002;6.488;2023-02-28T15:03:37;7.60;99.90
54192;DHT22;40101;53.002;6.488;2023-02-28T15:06:06;7.60;99.90
54192;DHT22;40101;53.002;6.488;2023-02-28T15:08:32;7.70;99.90
54192;DHT22;40101;53.002;6.488;2023-02-28T15:11:17;7.70;99.90
54192;DHT22;40101;53.002;6.488;2023-02-28T15:13:54;7.60;99.90
54192;DHT22;40101;53.002;6.488;2023-02-28T15:16:37;7.50;99.90
54192;DHT22;40101;53.002;6.488;2023-02-28T15:19:21;7.30;99.90
54192;DHT22;40101;53.002;6.488;2023-02-28T15:21:56;7.30;99.90
54192;DHT22;40101;53.002;6.488;2023-02-28T15:24:41;7.20;99.90
54192;DHT22;40101;53.002;6.488;2023-02-28T15:27:20;7.10;99.90
54192;DHT22;40101;53.002;6.488;2023-02-28T15:29:53;7.10;99.90
54192;DHT22;40101;53.002;6.488;2023-02-28T15:32:27;7.00;99.90
54192;DHT22;40101;53.002;6.488;2023-02-28T15:34:54;6.90;99.90
54192;DHT22;40101;53.002;6.488;2023-02-28T15:37:48;6.80;99.90
54192;DHT22;40101;53.002;6.488;2023-02-28T15:40:27;6.70;99.90
54192;DHT22;40101;53.002;6.488;2023-02-28T15:43:05;6.70;99.90
54192;DHT22;40101;53.002;6.488;2023-02-28T15:48:34;6.80;99.90
54192;DHT22;40101;53.002;6.488;2023-02-28T15:54:04;6.90;99.90
54192;DHT22;40101;53.002;6.488;2023-02-28T15:56:44;7.00;99.90
54192;DHT22;40101;53.002;6.488;2023-02-28T15:59:26;7.10;99.90
54192;DHT22;40101;53.002;6.488;2023-02-28T16:04:35;7.20;99.90
54192;DHT22;40101;53.002;6.488;2023-02-28T16:07:03;7.20;99.90
54192;DHT22;40101;53.002;6.488;2023-02-28T16:09:30;7.20;99.90
54192;DHT22;40101;53.002;6.488;2023-02-28T16:12:00;7.10;99.90
54192;DHT22;40101;53.002;6.488;2023-02-28T16:14:29;7.00;99.90
54192;DHT22;40101;53.002;6.488;2023-02-28T16:17:19;6.90;99.90
54192;DHT22;40101;53.002;6.488;2023-02-28T16:19:45;6.70;99.90
54192;DHT22;40101;53.002;6.488;2023-02-28T16:22:11;6.70;99.90
54192;DHT22;40101;53.002;6.488;2023-02-28T16:24:36;6.60;99.90
54192;DHT22;40101;53.002;6.488;2023-02-28T16:27:04;6.40;99.90
54192;DHT22;40101;53.002;6.488;2023-02-28T16:29:33;6.40;99.90
54192;DHT22;40101;53.002;6.488;2023-02-28T16:32:00;6.50;99.90
54192;DHT22;40101;53.002;6.488;2023-02-28T16:34:26;6.20;99.90
54192;DHT22;40101;53.002;6.488;2023-02-28T16:36:52;6.20;99.90
54192;DHT22;40101;53.002;6.488;2023-02-28T16:39:18;6.10;99.90
54192;DHT22;40101;53.002;6.488;2023-02-28T16:41:47;6.10;99.90
54192;DHT22;40101;53.002;6.488;2023-02-28T16:44:28;6.00;99.90
54192;DHT22;40101;53.002;6.488;2023-02-28T16:46:54;6.00;99.90
54192;DHT22;40101;53.002;6.488;2023-02-28T16:49:20;5.90;99.90
54192;DHT22;40101;53.002;6.488;2023-02-28T16:51:46;5.90;99.90
54192;DHT22;40101;53.002;6.488;2023-02-28T16:54:12;5.80;99.90
54192;DHT22;40101;53.002;6.488;2023-02-28T16:56:41;5.80;99.90
54192;DHT22;40101;53.002;6.488;2023-02-28T16:59:08;5.70;99.90
54192;DHT22;40101;53.002;6.488;2023-02-28T17:01:34;5.70;99.90
54192;DHT22;40101;53.002;6.488;2023-02-28T17:03:59;5.50;99.90
54192;DHT22;40101;53.002;6.488;2023-02-28T17:06:27;5.40;99.90
54192;DHT22;40101;53.002;6.488;2023-02-28T17:08:54;5.40;99.90
54192;DHT22;40101;53.002;6.488;2023-02-28T17:11:20;5.20;99.90
54192;DHT22;40101;53.002;6.488;2023-02-28T17:13:46;5.20;99.90
54192;DHT22;40101;53.002;6.488;2023-02-28T17:16:31;5.10;99.90
54192;DHT22;40101;53.002;6.488;2023-02-28T17:18:59;5.00;99.90
54192;DHT22;40101;53.002;6.488;2023-02-28T17:21:25;5.00;99.90
54192;DHT22;40101;53.002;6.488;2023-02-28T17:23:51;4.90;99.90
54192;DHT22;40101;53.002;6.488;2023-02-28T17:26:19;4.90;99.90
54192;DHT22;40101;53.002;6.488;2023-02-28T17:28:50;4.80;99.90
54192;DHT22;40101;53.002;6.488;2023-02-28T17:31:16;4.70;99.90
54192;DHT22;40101;53.002;6.488;2023-02-28T17:33:42;4.60;99.90
54192;DHT22;40101;53.002;6.488;2023-02-28T17:36:14;4.50;99.90
54192;DHT22;40101;53.002;6.488;2023-02-28T17:38:40;4.40;99.90
54192;DHT22;40101;53.002;6.488;2023-02-28T17:41:07;4.30;99.90
54192;DHT22;40101;53.002;6.488;2023-02-28T17:43:33;4.20;99.90
54192;DHT22;40101;53.002;6.488;2023-02-28T17:45:58;4.10;99.90
54192;DHT22;40101;53.002;6.488;2023-02-28T17:48:24;4.00;99.90
54192;DHT22;40101;53.002;6.488;2023-02-28T17:50:50;3.90;99.90
54192;DHT22;40101;53.002;6.488;2023-02-28T17:53:16;3.80;99.90
54192;DHT22;40101;53.002;6.488;2023-02-28T17:55:42;3.80;99.90
54192;DHT22;40101;53.002;6.488;2023-02-28T17:58:09;3.70;99.90
54192;DHT22;40101;53.002;6.488;2023-02-28T18:00:38;3.70;99.90
54192;DHT22;40101;53.002;6.488;2023-02-28T18:03:03;3.80;99.90
54192;DHT22;40101;53.002;6.488;2023-02-28T18:05:29;3.80;99.90
54192;DHT22;40101;53.002;6.488;2023-02-28T18:07:56;3.70;99.90
54192;DHT22;40101;53.002;6.488;2023-02-28T18:10:22;3.70;99.90
54192;DHT22;40101;53.002;6.488;2023-02-28T18:12:49;3.60;99.90